메인 페이지
METAR-TAF:

METAR-TAF

공항 :

블라디보스토크 국제공항

블라디보스토크, 러시아

위도: 43-07N, 경도: 131-56E, 고도: 184m

현재 날씨관측

예보는 34분 전, 16:30시(UTC)에 발표되었습니다.
북북동4kt
온도 9°C
습도 100%
기압 1007 hPa
시정: 5000m
고도 700ft 상공 구름 보통
박무

METAR: UHWW 311630Z 03002MPS 5000 BR SCT007 09/09 Q1007 R25L/0///70 NOSIG RMK MT OBSC QFE754

시각: 03:04 (17:04 UTC)

예보

예보는 3 시간 4분 전, 14:00시(UTC)에 발표되었습니다.
예보 대상 시간: 31일 15시부터 01일 15시까지 (UTC)
여러 방향의 바람 2kt
시정: 3100m
고도 1000ft 상공 구름 많음
박무
일시적
31일 15시부터 31일 19시까지 (UTC)
시정: 0500m
고도 200ft 상공
안개
전환 중
31일 19시부터 31일 22시까지 (UTC)
시정: 0400m
고도 200ft 상공
안개
31일 2300시부터 (UTC)
6kt
시정: 4000m
고도 1100ft 상공 구름 많음
고도 1700ft 상공 구름 많음, 적란운.
약한소나기, 박무
일시적
31일 23시부터 01일 08시까지 (UTC)
뇌우, 약한비
전환 중
01일 08시부터 01일 10시까지 (UTC)
시정: 3500m
박무

TAF: UHWW 311400Z 3115/0115 VRB01MPS 3100 BR BKN010 TEMPO 3115/3119 0500 FG VV002 BECMG 3119/3122 0400 FG VV002 FM312300 19003MPS 4000 -SHRA BR BKN011 BKN017CB TEMPO 3123/0108 -TSRA BECMG 0108/0110 3500 BR

4,000개 이상의 공항 관측 자료 및 예보 (METAR 및 TAF 보고).

지도상에서 검색 가능한 기상관측소가 노란 점과 빨간 점으로 표시되어 있습니다.

기상관측소 명을 보려면 표시 위로 마우스를 이동하세요.

날씨 관측과 예보를 보려면 클릭하세요.

지도 변경 : 확대하려면 엑스 표시가 있는 녹색 버튼, 축소하려면 빼기 표시가 있는 녹색 버튼, 다음 페이지의 지도를 보려면 녹색 화살표를 클릭하세요.


METAR-TAF: